Terminal Aerodrome Forecast
Issued by NWS Chicago, IL

Home | Current Version | Previous Version | Text Only | Print | Product List | Glossary Off
Versions: 1 2 3 4 5 6 7 8 9 10 11 12 13 14 15 16 17 18 19 20 21 22 23 24 25 26 27 28 29 30 31

000
FTUS43 KLOT 222324
TAFRFD
TAF
KRFD 222324Z 2300/2324 VRB03KT 6SM -SHRA VCTS SCT045CB BKN050
      OVC090
     FM230030 02006KT P6SM SCT050 BKN100
     FM231100 06007KT 4SM BR VCSH SCT008 OVC015
     FM231600 07009KT P6SM SCT010 BKN020=

USA.gov is the U.S. government's official web portal to all federal, state and local government web resources and services.